createdAt,value
2023-01-27T00:09:12.737Z,364
2023-01-27T00:29:12.764Z,363
2023-01-27T00:49:12.828Z,360
2023-01-27T01:29:12.900Z,361
2023-01-27T01:49:12.966Z,362
2023-01-27T02:09:12.935Z,359
2023-01-27T02:29:13.080Z,360
2023-01-27T02:49:13.003Z,358
2023-01-27T03:09:13.158Z,357
2023-01-27T03:29:13.192Z,355
2023-01-27T03:49:13.239Z,358
2023-01-27T04:09:13.300Z,356
2023-01-27T04:29:13.326Z,358
2023-01-27T05:09:13.448Z,357
2023-01-27T05:29:13.491Z,359
2023-01-27T05:49:13.540Z,357
2023-01-27T06:09:13.591Z,358
2023-01-27T06:29:13.706Z,356
2023-01-27T06:49:13.698Z,360
2023-01-27T07:09:13.735Z,358
2023-01-27T07:29:13.780Z,359
2023-01-27T07:49:13.827Z,358
2023-01-27T08:09:13.886Z,358
2023-01-27T08:29:13.891Z,359
2023-01-27T08:49:13.946Z,359
2023-01-27T09:09:14.127Z,360
2023-01-27T09:29:14.061Z,361
2023-01-27T09:49:14.112Z,360
2023-01-27T10:09:14.135Z,361
2023-01-27T10:29:14.198Z,361
2023-01-27T11:09:14.274Z,360
2023-01-27T11:29:14.246Z,360
2023-01-27T11:49:14.347Z,358
2023-01-27T12:09:14.414Z,359
2023-01-27T12:29:14.438Z,358
2023-01-27T12:49:14.489Z,358
2023-01-27T13:09:14.539Z,358
2023-01-27T13:29:14.584Z,359
2023-01-27T13:49:14.633Z,361
2023-01-27T14:09:14.664Z,361
2023-01-27T14:29:14.726Z,360
2023-01-27T14:49:14.829Z,360
2023-01-27T15:09:14.799Z,360
2023-01-27T15:29:14.729Z,360
2023-01-27T15:49:14.908Z,361
2023-01-27T16:09:14.913Z,362
2023-01-27T16:29:14.955Z,362
2023-01-27T16:49:15.030Z,360
2023-01-27T17:09:15.069Z,356
2023-01-27T17:29:15.147Z,360
2023-01-27T17:49:15.185Z,362
2023-01-27T18:09:15.644Z,361
2023-01-27T18:29:15.133Z,360
2023-01-27T18:49:15.331Z,361
2023-01-27T19:09:15.359Z,358
2023-01-27T19:29:15.391Z,361
2023-01-27T19:49:15.425Z,359
2023-01-27T20:09:15.479Z,359
2023-01-27T20:29:15.581Z,357
2023-01-27T20:49:15.579Z,357
2023-01-27T21:09:15.619Z,357
2023-01-27T21:29:15.643Z,356
2023-01-27T21:49:15.694Z,347
2023-01-27T22:09:15.769Z,335
2023-01-27T22:29:15.836Z,342
2023-01-27T22:49:15.836Z,351
2023-01-27T23:09:15.875Z,352
2023-01-27T23:29:24.483Z,354
2023-01-27T23:49:15.970Z,354
